Armona, California
Current Conditions -  °F | °C
As of 8:53 AM on Tuesday 21 Oct 2014 (Local Time) from KHJO Reporting Station
Clear Clear  
Wind Chill: 14°   Ceiling: Unl
Heat Index: 14°   Visibility: 10mi
Dew Point:   Wind: 15mph
Humidity: 72%   Direction: 330°NNW
Pressure: 30.08"   Gusts: NA
Location:  36.32°N, 119.71°W
Report Text: KHJO 211553Z AUTO 33013KT 10SM CLR 14/09 A3008 RMK AO2 SLP188 T01440094
Loading
Personal Weather Stations






























Interactive Weather Map
Tropical Storm Tracking
New forecast layout! Learn more

10-Day Weather Forecast

Advertisements
Track Severe Weather on mobile